createdAt,value
2023-11-30T00:00:22.064Z,17.15
2023-11-30T00:03:09.061Z,15.88
2023-11-30T00:05:36.825Z,16.42
2023-11-30T00:08:03.721Z,17.25
2023-11-30T00:10:30.793Z,16.35
2023-11-30T00:12:57.627Z,16.42
2023-11-30T00:15:24.819Z,16.95
2023-11-30T00:17:51.694Z,16.95
2023-11-30T00:20:18.840Z,16.00
2023-11-30T00:22:47.220Z,15.30
2023-11-30T00:25:14.358Z,15.23
2023-11-30T00:27:41.171Z,16.13
2023-11-30T00:30:08.924Z,14.95
2023-11-30T00:32:36.915Z,15.38
2023-11-30T00:35:04.647Z,14.35
2023-11-30T00:37:31.469Z,14.25
2023-11-30T00:39:58.612Z,14.07
2023-11-30T00:42:26.819Z,15.07
2023-11-30T00:44:54.194Z,13.45
2023-11-30T00:47:21.004Z,13.23
2023-11-30T00:49:48.194Z,14.43
2023-11-30T00:52:15.017Z,15.63
2023-11-30T00:54:42.121Z,14.15
2023-11-30T00:57:08.933Z,14.40
2023-11-30T00:59:36.073Z,14.52
2023-11-30T01:02:02.914Z,14.98
2023-11-30T01:04:30.045Z,13.80
2023-11-30T01:06:56.885Z,15.40
2023-11-30T01:09:24.036Z,14.85
2023-11-30T01:11:50.932Z,13.77
2023-11-30T01:14:18.114Z,14.88
2023-11-30T01:16:46.079Z,14.18
2023-11-30T01:19:13.366Z,14.68
2023-11-30T01:21:40.302Z,16.27
2023-11-30T01:24:07.648Z,15.75
2023-11-30T01:26:34.464Z,14.90
2023-11-30T01:29:01.558Z,15.00
2023-11-30T01:31:28.376Z,15.43
2023-11-30T01:33:55.517Z,14.77
2023-11-30T01:36:22.430Z,13.05
2023-11-30T01:38:49.576Z,14.93
2023-11-30T01:41:16.653Z,13.35
2023-11-30T01:43:43.740Z,14.48
2023-11-30T01:46:11.044Z,12.85
2023-11-30T01:48:38.208Z,13.65
2023-11-30T01:51:06.774Z,13.75
2023-11-30T01:53:37.769Z,13.52
2023-11-30T01:56:05.323Z,13.57
2023-11-30T01:58:32.465Z,15.50
2023-11-30T02:01:00.124Z,14.80
2023-11-30T02:03:27.824Z,13.57
2023-11-30T02:05:54.720Z,14.63
2023-11-30T02:08:21.839Z,14.50
2023-11-30T02:10:48.623Z,15.75
2023-11-30T02:13:15.733Z,14.48
2023-11-30T02:15:42.607Z,14.70
2023-11-30T02:18:09.872Z,13.43
2023-11-30T02:20:36.773Z,13.68
2023-11-30T02:23:03.918Z,14.52
2023-11-30T02:25:30.692Z,12.35
2023-11-30T02:27:59.845Z,13.45
2023-11-30T02:30:27.045Z,14.38
2023-11-30T02:32:54.419Z,15.75
2023-11-30T02:35:21.423Z,14.35
2023-11-30T02:37:48.599Z,14.00
2023-11-30T02:40:15.487Z,14.02
2023-11-30T02:42:42.648Z,13.80
2023-11-30T02:45:10.269Z,14.60
2023-11-30T02:47:37.504Z,13.48
2023-11-30T02:50:04.769Z,13.02
2023-11-30T02:52:32.367Z,13.05
2023-11-30T02:54:59.148Z,13.77
2023-11-30T02:57:26.589Z,14.18
2023-11-30T02:59:53.431Z,13.65
2023-11-30T03:02:20.655Z,13.27
2023-11-30T03:04:47.841Z,13.25
2023-11-30T03:07:15.061Z,13.65
2023-11-30T03:09:41.879Z,13.07
2023-11-30T03:12:09.160Z,14.30
2023-11-30T03:14:36.101Z,14.00
2023-11-30T03:17:03.526Z,13.57
2023-11-30T03:19:30.324Z,14.50
2023-11-30T03:21:57.736Z,13.73
2023-11-30T03:24:24.593Z,13.93
2023-11-30T03:26:51.883Z,15.10
2023-11-30T03:29:18.712Z,13.52
2023-11-30T03:31:45.875Z,13.35
2023-11-30T03:34:12.723Z,13.15
2023-11-30T03:36:40.016Z,13.70
2023-11-30T03:39:07.070Z,13.88
2023-11-30T03:41:34.252Z,14.02
2023-11-30T03:44:01.093Z,13.93
2023-11-30T03:46:28.756Z,12.93
2023-11-30T03:48:55.674Z,13.13
2023-11-30T03:51:22.876Z,12.90
2023-11-30T03:53:49.772Z,13.82
2023-11-30T03:56:16.847Z,14.35
2023-11-30T03:58:43.878Z,14.57
2023-11-30T04:01:10.968Z,14.57
2023-11-30T04:03:37.948Z,14.30
2023-11-30T04:06:05.370Z,13.95
2023-11-30T04:08:32.204Z,13.82
2023-11-30T04:10:59.312Z,14.68
2023-11-30T04:13:26.667Z,14.73
2023-11-30T04:15:53.772Z,14.32
2023-11-30T04:18:20.740Z,15.65
2023-11-30T04:20:47.895Z,15.50
2023-11-30T04:23:14.860Z,14.95
2023-11-30T04:25:41.998Z,16.20
2023-11-30T04:28:09.964Z,15.15
2023-11-30T04:30:37.275Z,15.20
2023-11-30T04:33:05.252Z,15.73
2023-11-30T04:35:32.891Z,15.98
2023-11-30T04:37:59.801Z,14.13
2023-11-30T04:40:26.944Z,14.80
2023-11-30T04:42:53.876Z,14.95
2023-11-30T04:45:21.104Z,15.68
2023-11-30T04:47:47.941Z,17.10
2023-11-30T04:50:15.058Z,16.08
2023-11-30T04:52:41.909Z,15.43
2023-11-30T04:55:09.401Z,15.57
2023-11-30T04:57:36.375Z,16.77
2023-11-30T05:00:06.563Z,15.88
2023-11-30T05:02:34.370Z,15.52
2023-11-30T05:05:01.652Z,15.90
2023-11-30T05:07:28.597Z,15.57
2023-11-30T05:09:55.751Z,15.55
2023-11-30T05:12:22.551Z,15.05
2023-11-30T05:14:49.813Z,18.20
2023-11-30T05:17:16.599Z,17.05
2023-11-30T05:19:43.737Z,17.98
2023-11-30T05:22:12.438Z,16.83
2023-11-30T05:24:39.811Z,17.02
2023-11-30T05:27:06.750Z,16.50
2023-11-30T05:29:34.054Z,16.27
2023-11-30T05:32:00.906Z,16.38
2023-11-30T05:34:28.098Z,15.93
2023-11-30T05:36:54.910Z,16.02
2023-11-30T05:39:22.060Z,15.13
2023-11-30T05:41:48.873Z,14.15
2023-11-30T05:44:16.853Z,14.52
2023-11-30T05:46:43.803Z,15.73
2023-11-30T05:49:11.103Z,14.93
2023-11-30T05:51:37.964Z,14.32
2023-11-30T05:54:05.355Z,14.73
2023-11-30T05:56:32.202Z,14.82
2023-11-30T05:58:59.380Z,15.48
2023-11-30T06:01:26.491Z,14.13
2023-11-30T06:03:53.942Z,15.25
2023-11-30T06:06:21.025Z,16.13
2023-11-30T06:08:48.409Z,16.70
2023-11-30T06:11:18.273Z,17.35
2023-11-30T06:13:46.475Z,18.73
2023-11-30T06:16:13.434Z,21.95
2023-11-30T06:18:40.621Z,21.48
2023-11-30T06:21:10.586Z,23.35
2023-11-30T06:23:38.490Z,24.45
2023-11-30T06:26:06.249Z,24.77
2023-11-30T06:28:33.395Z,26.10
2023-11-30T06:31:00.203Z,26.50
2023-11-30T06:33:27.886Z,27.42
2023-11-30T06:35:54.834Z,27.42
2023-11-30T06:38:22.002Z,27.75
2023-11-30T06:40:50.203Z,27.45
2023-11-30T06:43:17.685Z,27.90
2023-11-30T06:45:44.717Z,27.55
2023-11-30T06:48:11.961Z,28.98
2023-11-30T06:50:38.816Z,28.23
2023-11-30T06:53:06.013Z,27.90
2023-11-30T06:55:32.952Z,29.35
2023-11-30T06:58:00.181Z,29.13
2023-11-30T07:00:28.180Z,28.00
2023-11-30T07:02:55.550Z,28.02
2023-11-30T07:05:22.444Z,27.90
2023-11-30T07:07:49.799Z,30.00
2023-11-30T07:10:16.757Z,28.55
2023-11-30T07:12:44.179Z,28.38
2023-11-30T07:15:11.161Z,28.42
2023-11-30T07:17:38.372Z,30.08
2023-11-30T07:20:05.919Z,27.38
2023-11-30T07:22:33.050Z,29.38
2023-11-30T07:24:59.883Z,30.35
2023-11-30T07:27:27.689Z,28.55
2023-11-30T07:29:54.993Z,27.95
2023-11-30T07:32:22.141Z,26.42
2023-11-30T07:34:49.497Z,27.27
2023-11-30T07:37:17.722Z,27.20
2023-11-30T07:39:45.388Z,27.88
2023-11-30T07:42:13.414Z,28.02
2023-11-30T07:44:41.039Z,28.70
2023-11-30T07:47:08.236Z,27.75
2023-11-30T07:49:35.063Z,27.73
2023-11-30T07:52:02.639Z,28.25
2023-11-30T07:54:29.713Z,29.38
2023-11-30T07:56:56.839Z,29.08
2023-11-30T07:59:23.710Z,29.48
2023-11-30T08:01:50.875Z,29.02
2023-11-30T08:04:17.915Z,27.38
2023-11-30T08:06:46.018Z,27.80
2023-11-30T08:09:14.711Z,27.23
2023-11-30T08:11:42.218Z,26.70
2023-11-30T08:14:10.197Z,26.80
2023-11-30T08:16:39.085Z,28.17
2023-11-30T08:19:07.676Z,26.05
2023-11-30T08:21:37.171Z,26.23
2023-11-30T08:24:05.308Z,25.77
2023-11-30T08:26:32.439Z,23.92
2023-11-30T08:28:59.228Z,24.52
2023-11-30T08:31:26.824Z,22.98
2023-11-30T08:33:53.725Z,22.88
2023-11-30T08:36:21.008Z,22.90
2023-11-30T08:38:47.842Z,20.65
2023-11-30T08:41:14.948Z,20.88
2023-11-30T08:43:42.035Z,19.02
2023-11-30T08:46:09.573Z,20.25
2023-11-30T08:48:36.469Z,20.55
2023-11-30T08:51:03.756Z,19.65
2023-11-30T08:53:30.742Z,19.33
2023-11-30T08:55:57.973Z,19.20
2023-11-30T08:58:24.800Z,18.77
2023-11-30T09:00:51.898Z,17.40
2023-11-30T09:03:19.431Z,18.10
2023-11-30T09:05:46.721Z,16.63
2023-11-30T09:08:13.541Z,16.58
2023-11-30T09:10:40.853Z,17.02
2023-11-30T09:13:09.235Z,15.43
2023-11-30T09:15:37.414Z,15.13
2023-11-30T09:18:04.701Z,16.33
2023-11-30T09:20:31.994Z,15.90
2023-11-30T09:22:58.889Z,15.85
2023-11-30T09:25:26.287Z,16.50
2023-11-30T09:27:53.191Z,15.00
2023-11-30T09:30:20.335Z,17.98
2023-11-30T09:32:47.286Z,16.42
2023-11-30T09:35:14.476Z,15.90
2023-11-30T09:37:41.394Z,16.25
2023-11-30T09:40:10.572Z,15.77
2023-11-30T09:42:37.438Z,16.58
2023-11-30T09:45:05.581Z,18.20
2023-11-30T09:47:32.641Z,17.35
2023-11-30T09:50:01.897Z,15.82
2023-11-30T09:52:29.795Z,15.60
2023-11-30T09:54:57.772Z,16.40
2023-11-30T09:57:24.709Z,16.38
2023-11-30T09:59:51.934Z,15.35
2023-11-30T10:02:20.242Z,15.95
2023-11-30T10:04:47.537Z,17.67
2023-11-30T10:07:14.456Z,15.55
2023-11-30T10:09:41.730Z,14.50
2023-11-30T10:12:08.847Z,13.85
2023-11-30T10:14:36.054Z,13.95
2023-11-30T10:17:03.071Z,14.05
2023-11-30T10:19:31.803Z,14.85
2023-11-30T10:21:58.829Z,14.70
2023-11-30T10:24:26.705Z,14.02
2023-11-30T10:26:53.632Z,14.25
2023-11-30T10:29:22.171Z,14.10
2023-11-30T10:31:50.853Z,14.43
2023-11-30T10:34:20.350Z,13.32
2023-11-30T10:36:47.240Z,15.13
2023-11-30T10:39:24.510Z,13.32
2023-11-30T10:41:56.083Z,13.65
2023-11-30T10:44:27.711Z,12.98
2023-11-30T10:46:59.574Z,12.85
2023-11-30T10:49:28.412Z,13.32
2023-11-30T10:51:59.062Z,13.68
2023-11-30T10:54:32.981Z,12.38
2023-11-30T10:57:00.844Z,13.30
2023-11-30T10:59:31.640Z,14.32
2023-11-30T11:01:58.853Z,13.68
2023-11-30T11:04:29.257Z,12.15
2023-11-30T11:07:15.120Z,13.65
2023-11-30T11:09:51.369Z,12.55
2023-11-30T11:12:24.726Z,13.00
2023-11-30T11:14:54.146Z,11.82
2023-11-30T11:17:21.688Z,12.32
2023-11-30T11:19:48.890Z,12.90
2023-11-30T11:22:15.768Z,11.80
2023-11-30T11:24:43.085Z,12.48
2023-11-30T11:27:10.782Z,12.38
2023-11-30T11:29:42.571Z,11.60
2023-11-30T11:32:12.376Z,11.52
2023-11-30T11:34:39.481Z,10.80
2023-11-30T11:37:08.316Z,10.80
2023-11-30T11:39:35.628Z,10.48
2023-11-30T11:42:03.619Z,10.27
2023-11-30T11:44:30.835Z,10.77
2023-11-30T11:46:57.663Z,9.80
2023-11-30T11:49:24.940Z,10.80
2023-11-30T11:51:51.927Z,9.50
2023-11-30T11:54:19.969Z,10.00
2023-11-30T11:56:49.849Z,10.15
2023-11-30T11:59:33.188Z,10.70
2023-11-30T12:02:01.025Z,9.68
2023-11-30T12:04:35.191Z,10.70
2023-11-30T12:07:15.857Z,10.30
2023-11-30T12:09:43.388Z,10.45
2023-11-30T12:12:10.276Z,11.20
2023-11-30T12:14:37.447Z,10.93
2023-11-30T12:17:04.372Z,11.07
2023-11-30T12:19:31.453Z,11.23
2023-11-30T12:21:58.378Z,11.18
2023-11-30T12:24:25.620Z,10.65
2023-11-30T12:26:52.547Z,11.23
2023-11-30T12:29:19.652Z,10.65
2023-11-30T12:31:46.477Z,10.75
2023-11-30T12:34:13.754Z,11.32
2023-11-30T12:36:40.667Z,11.30
2023-11-30T12:39:08.424Z,11.73
2023-11-30T12:41:35.355Z,10.73
2023-11-30T12:44:04.914Z,11.98
2023-11-30T12:46:32.526Z,10.82
2023-11-30T12:48:59.777Z,11.70
2023-11-30T12:51:26.660Z,12.27
2023-11-30T12:53:53.878Z,12.23
2023-11-30T12:56:20.864Z,12.25
2023-11-30T12:58:48.267Z,12.68
2023-11-30T13:01:15.195Z,14.13
2023-11-30T13:03:42.929Z,13.07
2023-11-30T13:06:11.255Z,13.25
2023-11-30T13:08:38.490Z,14.18
2023-11-30T13:11:05.471Z,13.70
2023-11-30T13:13:41.866Z,15.00
2023-11-30T13:16:10.797Z,16.10
2023-11-30T13:18:38.338Z,16.13
2023-11-30T13:21:06.386Z,15.93
2023-11-30T13:23:33.663Z,14.38
2023-11-30T13:26:00.564Z,16.60
2023-11-30T13:28:35.422Z,15.52
2023-11-30T13:31:07.684Z,15.18
2023-11-30T13:33:35.521Z,17.27
2023-11-30T13:36:02.375Z,17.60
2023-11-30T13:38:29.543Z,16.52
2023-11-30T13:40:56.357Z,17.83
2023-11-30T13:43:24.194Z,18.15
2023-11-30T13:45:52.172Z,18.17
2023-11-30T13:48:19.563Z,19.27
2023-11-30T13:50:53.362Z,18.33
2023-11-30T13:53:23.678Z,16.50
2023-11-30T13:55:50.525Z,16.60
2023-11-30T13:58:17.667Z,17.70
2023-11-30T14:00:44.673Z,16.58
2023-11-30T14:03:12.427Z,17.55
2023-11-30T14:05:39.448Z,17.80
2023-11-30T14:08:06.803Z,17.67
2023-11-30T14:10:33.713Z,17.20
2023-11-30T14:13:00.997Z,18.70
2023-11-30T14:15:27.899Z,19.30
2023-11-30T14:17:55.074Z,19.08
2023-11-30T14:20:22.314Z,19.35
2023-11-30T14:22:49.645Z,20.52
2023-11-30T14:25:16.695Z,20.60
2023-11-30T14:27:46.803Z,22.77
2023-11-30T14:30:14.513Z,24.20
2023-11-30T14:32:42.206Z,28.20
2023-11-30T14:35:09.367Z,28.58
2023-11-30T14:37:36.565Z,32.28
2023-11-30T14:40:05.188Z,32.90
2023-11-30T14:42:32.983Z,32.95
2023-11-30T14:44:59.935Z,34.08
2023-11-30T14:47:28.090Z,36.03
2023-11-30T14:49:56.105Z,41.63
2023-11-30T14:52:23.915Z,40.60
2023-11-30T14:54:53.594Z,40.17
2023-11-30T14:57:20.999Z,39.03
2023-11-30T14:59:50.829Z,42.10
2023-11-30T15:02:18.581Z,46.72
2023-11-30T15:04:45.556Z,46.15
2023-11-30T15:07:12.630Z,46.88
2023-11-30T15:09:41.559Z,45.78
2023-11-30T15:12:09.081Z,44.03
2023-11-30T15:14:35.916Z,46.03
2023-11-30T15:17:03.302Z,44.75
2023-11-30T15:19:30.140Z,46.95
2023-11-30T15:21:57.261Z,45.03
2023-11-30T15:24:24.123Z,47.22
2023-11-30T15:26:51.512Z,44.63
2023-11-30T15:29:18.343Z,44.45
2023-11-30T15:31:45.541Z,44.88
2023-11-30T15:34:12.352Z,45.63
2023-11-30T15:36:42.819Z,46.55
2023-11-30T15:39:14.697Z,46.10
2023-11-30T15:41:47.036Z,45.58
2023-11-30T15:44:14.200Z,45.90
2023-11-30T15:46:44.704Z,47.63
2023-11-30T15:49:14.493Z,46.85
2023-11-30T15:51:43.174Z,49.72
2023-11-30T15:54:10.942Z,49.30
2023-11-30T15:56:38.427Z,48.05
2023-11-30T15:59:05.292Z,50.00
2023-11-30T16:01:32.545Z,47.72
2023-11-30T16:04:00.403Z,49.63
2023-11-30T16:06:27.808Z,50.90
2023-11-30T16:08:55.263Z,48.53
2023-11-30T16:11:22.370Z,49.65
2023-11-30T16:13:49.457Z,50.13
2023-11-30T16:16:17.065Z,53.40
2023-11-30T16:18:43.989Z,55.88
2023-11-30T16:21:18.650Z,57.53
2023-11-30T16:23:46.380Z,58.70
2023-11-30T16:26:17.810Z,58.10
2023-11-30T16:28:45.106Z,59.38
2023-11-30T16:31:12.508Z,62.75
2023-11-30T16:33:40.424Z,64.93
2023-11-30T16:36:08.788Z,65.78
2023-11-30T16:38:36.153Z,71.45
2023-11-30T16:41:03.967Z,64.03
2023-11-30T16:43:32.454Z,65.75
2023-11-30T16:45:59.733Z,62.15
2023-11-30T16:48:27.011Z,63.45
2023-11-30T16:50:54.142Z,65.38
2023-11-30T16:53:20.974Z,63.40
2023-11-30T16:55:48.587Z,65.30
2023-11-30T16:58:15.393Z,64.85
2023-11-30T17:00:42.760Z,65.47
2023-11-30T17:03:09.654Z,64.00
2023-11-30T17:05:38.866Z,70.13
2023-11-30T17:08:05.717Z,68.55
2023-11-30T17:10:32.839Z,67.68
2023-11-30T17:12:59.710Z,66.43
2023-11-30T17:15:27.081Z,70.82
2023-11-30T17:17:53.957Z,67.80
2023-11-30T17:20:21.039Z,68.53
2023-11-30T17:22:50.727Z,68.60
2023-11-30T17:25:17.943Z,71.28
2023-11-30T17:27:44.783Z,70.75
2023-11-30T17:30:12.262Z,74.80
2023-11-30T17:32:39.183Z,75.25
2023-11-30T17:35:07.025Z,71.43
2023-11-30T17:37:33.930Z,74.35
2023-11-30T17:40:01.535Z,76.00
2023-11-30T17:42:28.526Z,77.10
2023-11-30T17:44:55.839Z,78.63
2023-11-30T17:47:23.144Z,78.88
2023-11-30T17:49:50.289Z,78.25
2023-11-30T17:52:17.244Z,78.25
2023-11-30T17:54:44.462Z,78.18
2023-11-30T17:57:11.348Z,79.07
2023-11-30T17:59:38.579Z,96.45
2023-11-30T18:02:05.647Z,94.95
2023-11-30T18:04:33.280Z,90.13
2023-11-30T18:07:00.190Z,89.28
2023-11-30T18:09:28.038Z,83.18
2023-11-30T18:11:55.095Z,83.95
2023-11-30T18:14:23.591Z,85.72
2023-11-30T18:16:50.490Z,82.95
2023-11-30T18:19:17.720Z,88.00
2023-11-30T18:21:44.559Z,87.50
2023-11-30T18:24:11.806Z,90.15
2023-11-30T18:26:38.604Z,90.15
2023-11-30T18:29:06.075Z,91.60
2023-11-30T18:31:33.347Z,98.85
2023-11-30T18:34:00.600Z,101.20
2023-11-30T18:36:27.595Z,98.97
2023-11-30T18:38:55.012Z,95.20
2023-11-30T18:41:22.069Z,94.93
2023-11-30T18:43:49.927Z,93.97
2023-11-30T18:46:17.099Z,89.03
2023-11-30T18:48:44.680Z,92.78
2023-11-30T18:51:11.641Z,97.15
2023-11-30T18:53:39.016Z,96.93
2023-11-30T18:56:06.204Z,95.93
2023-11-30T18:58:33.405Z,99.22
2023-11-30T19:01:00.307Z,97.68
2023-11-30T19:03:27.616Z,101.57
2023-11-30T19:05:55.047Z,103.68
2023-11-30T19:08:22.227Z,109.18
2023-11-30T19:10:49.070Z,107.03
2023-11-30T19:13:16.311Z,109.20
2023-11-30T19:15:43.334Z,108.82
2023-11-30T19:18:10.940Z,115.45
2023-11-30T19:20:38.339Z,121.13
2023-11-30T19:23:05.693Z,117.57
2023-11-30T19:25:35.331Z,117.78
2023-11-30T19:28:02.585Z,112.53
2023-11-30T19:30:29.599Z,112.72
2023-11-30T19:32:56.777Z,115.80
2023-11-30T19:35:23.590Z,116.75
2023-11-30T19:37:50.748Z,124.30
2023-11-30T19:40:17.826Z,127.18
2023-11-30T19:42:44.957Z,126.30
2023-11-30T19:45:12.015Z,134.05
2023-11-30T19:47:39.543Z,136.30
2023-11-30T19:50:07.175Z,135.32
2023-11-30T19:52:36.279Z,135.30
2023-11-30T19:55:04.859Z,132.85
2023-11-30T19:57:32.096Z,134.30
2023-11-30T19:59:59.014Z,133.25
2023-11-30T20:02:26.456Z,137.10
2023-11-30T20:04:53.376Z,136.05
2023-11-30T20:07:20.707Z,135.32
2023-11-30T20:09:47.632Z,133.05
2023-11-30T20:12:14.790Z,133.75
2023-11-30T20:14:42.188Z,134.18
2023-11-30T20:17:09.411Z,132.88
2023-11-30T20:19:36.472Z,133.52
2023-11-30T20:22:04.051Z,133.57
2023-11-30T20:24:35.092Z,130.55
2023-11-30T20:27:08.658Z,133.35
2023-11-30T20:29:35.582Z,132.80
2023-11-30T20:32:02.840Z,134.13
2023-11-30T20:34:29.719Z,136.23
2023-11-30T20:36:57.517Z,135.52
2023-11-30T20:39:25.907Z,137.90
2023-11-30T20:41:53.236Z,137.13
2023-11-30T20:44:20.487Z,138.98
2023-11-30T20:46:47.636Z,139.32
2023-11-30T20:49:15.023Z,139.40
2023-11-30T20:51:42.279Z,135.40
2023-11-30T20:54:10.243Z,136.70
2023-11-30T20:56:37.576Z,139.60
2023-11-30T20:59:04.400Z,140.98
2023-11-30T21:01:32.265Z,137.55
2023-11-30T21:12:15.616Z,138.88
2023-11-30T21:14:43.141Z,139.95
2023-11-30T21:17:10.478Z,138.73
2023-11-30T21:19:37.400Z,138.05
2023-11-30T21:22:05.005Z,139.77
2023-11-30T21:24:34.252Z,140.02
2023-11-30T21:27:01.559Z,141.77
2023-11-30T21:29:28.466Z,139.48
2023-11-30T21:31:55.721Z,140.77
2023-11-30T21:34:22.646Z,143.40
2023-11-30T21:36:50.211Z,145.30
2023-11-30T21:39:17.141Z,139.77
2023-11-30T21:41:44.345Z,142.70
2023-11-30T21:44:11.292Z,142.18
2023-11-30T21:46:38.497Z,139.25
2023-11-30T21:49:05.735Z,140.50
2023-11-30T21:51:33.372Z,138.52
2023-11-30T21:54:03.211Z,136.75
2023-11-30T21:56:30.437Z,133.52
2023-11-30T21:58:57.374Z,133.60
2023-11-30T22:01:24.786Z,135.43
2023-11-30T22:03:51.816Z,136.00
2023-11-30T22:06:19.076Z,132.57
2023-11-30T22:08:49.919Z,133.52
2023-11-30T22:11:18.330Z,134.43
2023-11-30T22:13:45.933Z,134.70
2023-11-30T22:16:15.035Z,129.30
2023-11-30T22:18:43.720Z,133.50
2023-11-30T22:21:10.976Z,132.27
2023-11-30T22:23:37.887Z,131.52
2023-11-30T22:26:05.319Z,132.65
2023-11-30T22:28:32.290Z,134.35
2023-11-30T22:31:00.004Z,133.52
2023-11-30T22:33:27.034Z,129.93
2023-11-30T22:35:54.354Z,132.32
2023-11-30T22:38:21.877Z,128.27
2023-11-30T22:40:49.157Z,132.00
2023-11-30T22:43:16.005Z,131.68
2023-11-30T22:45:43.291Z,133.60
2023-11-30T22:48:10.240Z,133.90
2023-11-30T22:50:37.565Z,130.10
2023-11-30T22:53:04.654Z,135.68
2023-11-30T22:55:32.016Z,131.57
2023-11-30T22:57:58.989Z,134.75
2023-11-30T23:00:27.599Z,137.00
2023-11-30T23:02:54.694Z,130.75
2023-11-30T23:05:22.191Z,135.35
2023-11-30T23:07:49.198Z,135.10
2023-11-30T23:10:18.695Z,136.48
2023-11-30T23:12:46.232Z,133.70
2023-11-30T23:15:13.620Z,134.25
2023-11-30T23:17:40.701Z,131.38
2023-11-30T23:20:08.598Z,129.32
2023-11-30T23:22:36.085Z,128.38
2023-11-30T23:25:06.594Z,130.45
2023-11-30T23:27:33.603Z,130.45
2023-11-30T23:30:01.092Z,132.93
2023-11-30T23:32:28.103Z,131.35
2023-11-30T23:34:55.390Z,128.52
2023-11-30T23:37:22.426Z,133.18
2023-11-30T23:39:49.736Z,129.38
2023-11-30T23:42:17.075Z,131.27
2023-11-30T23:44:44.463Z,131.82
2023-11-30T23:47:11.619Z,132.32
2023-11-30T23:49:38.945Z,130.77
2023-11-30T23:52:06.524Z,131.00
2023-11-30T23:54:33.904Z,129.80
2023-11-30T23:57:00.919Z,131.27
2023-11-30T23:59:28.185Z,131.52
